Pikwitonei, Canada
Current Conditions -  °F | °C
As of 11:00 PM on Saturday 25 Oct 2014 (Local Time) from CYTH Reporting Station
Few Clouds Few Clouds  
Wind Chill: 27°   Ceiling: Unl
Heat Index: 34°   Visibility: 15mi
Dew Point: 30°   Wind: 8mph
Humidity: 87%   Direction: 270°W
Pressure: 29.85"   Gusts: NA
Location:  55.58°N, 97.15°W
Report Text: CYTH 260400Z 27007KT 15SM FEW047 01/M01 A2985 RMK SC2 SLP122
Loading
Personal Weather Stations






























Interactive Weather Map
Tropical Storm Tracking
New forecast layout! Learn more

10-Day Weather Forecast

Advertisements
Track Severe Weather on mobile